createdAt,value
2023-05-09T00:02:13.933Z,18.02
2023-05-09T00:04:41.036Z,18.35
2023-05-09T00:07:08.159Z,18.02
2023-05-09T00:09:35.129Z,18.08
2023-05-09T00:12:02.686Z,17.90
2023-05-09T00:14:29.691Z,16.85
2023-05-09T00:16:59.335Z,17.65
2023-05-09T00:19:26.470Z,17.77
2023-05-09T00:21:53.934Z,18.42
2023-05-09T00:24:20.991Z,17.40
2023-05-09T00:26:47.989Z,17.90
2023-05-09T00:29:14.982Z,17.20
2023-05-09T00:31:42.029Z,18.30
2023-05-09T00:34:09.036Z,19.83
2023-05-09T00:36:36.116Z,18.35
2023-05-09T00:39:03.201Z,17.85
2023-05-09T00:41:30.182Z,19.20
2023-05-09T00:43:57.231Z,21.13
2023-05-09T00:46:24.306Z,19.38
2023-05-09T00:48:52.484Z,18.95
2023-05-09T00:51:20.708Z,18.90
2023-05-09T00:53:48.147Z,20.25
2023-05-09T00:56:15.968Z,19.17
2023-05-09T00:58:43.019Z,20.58
2023-05-09T01:01:10.233Z,19.70
2023-05-09T01:03:41.331Z,18.33
2023-05-09T01:06:39.730Z,18.23
2023-05-09T01:09:12.979Z,16.63
2023-05-09T01:11:49.388Z,18.50
2023-05-09T01:14:30.896Z,19.70
2023-05-09T01:17:12.234Z,20.77
2023-05-09T01:19:51.276Z,19.30
2023-05-09T01:22:20.730Z,22.17
2023-05-09T01:25:27.331Z,22.02
2023-05-09T01:28:06.148Z,20.90
2023-05-09T01:30:36.025Z,20.50
2023-05-09T01:33:07.318Z,19.95
2023-05-09T01:35:37.650Z,17.50
2023-05-09T01:38:11.817Z,18.48
2023-05-09T01:40:42.252Z,17.83
2023-05-09T01:43:11.840Z,19.92
2023-05-09T01:45:40.231Z,17.70
2023-05-09T01:48:09.675Z,19.05
2023-05-09T01:50:37.954Z,19.75
2023-05-09T01:53:06.709Z,18.92
2023-05-09T01:55:36.793Z,19.20
2023-05-09T01:58:05.801Z,20.50
2023-05-09T02:00:34.734Z,19.20
2023-05-09T02:03:03.944Z,17.02
2023-05-09T02:05:33.629Z,17.02
2023-05-09T02:08:01.295Z,16.95
2023-05-09T02:10:29.024Z,17.73
2023-05-09T02:12:57.471Z,16.48
2023-05-09T02:15:25.039Z,15.60
2023-05-09T02:17:52.281Z,15.68
2023-05-09T02:20:19.429Z,16.35
2023-05-09T02:22:47.925Z,16.02
2023-05-09T02:25:18.697Z,16.25
2023-05-09T02:27:46.843Z,16.35
2023-05-09T02:30:27.601Z,16.08
2023-05-09T02:33:01.036Z,16.80
2023-05-09T02:35:28.959Z,17.13
2023-05-09T02:37:58.805Z,16.05
2023-05-09T02:42:54.309Z,16.40
2023-05-09T02:45:22.002Z,15.95
2023-05-09T02:47:48.997Z,17.63
2023-05-09T02:50:16.046Z,15.82
2023-05-09T02:52:43.604Z,17.25
2023-05-09T02:55:10.842Z,17.10
2023-05-09T02:57:40.309Z,17.48
2023-05-09T03:00:09.756Z,17.13
2023-05-09T03:02:38.116Z,18.27
2023-05-09T03:05:08.710Z,17.42
2023-05-09T03:07:36.681Z,17.65
2023-05-09T03:10:04.338Z,17.50
2023-05-09T03:12:32.907Z,17.90
2023-05-09T03:15:01.255Z,17.23
2023-05-09T03:17:29.046Z,18.58
2023-05-09T03:19:56.037Z,18.85
2023-05-09T03:22:23.047Z,16.98
2023-05-09T03:24:56.019Z,24.00
2023-05-09T03:27:23.002Z,22.35
2023-05-09T03:29:50.936Z,31.20
2023-05-09T03:32:19.352Z,33.67
2023-05-09T03:34:46.518Z,41.80
2023-05-09T03:37:13.703Z,37.40
2023-05-09T03:39:41.859Z,40.45
2023-05-09T03:42:09.002Z,36.80
2023-05-09T03:44:36.144Z,26.13
2023-05-09T03:47:03.178Z,22.48
2023-05-09T03:49:36.627Z,19.45
2023-05-09T03:52:04.202Z,20.17
2023-05-09T03:54:31.525Z,19.42
2023-05-09T03:56:58.461Z,19.83
2023-05-09T03:59:25.549Z,19.13
2023-05-09T04:01:53.983Z,20.50
2023-05-09T04:04:23.596Z,19.23
2023-05-09T04:06:50.880Z,19.08
2023-05-09T04:09:18.388Z,20.65
2023-05-09T04:11:46.834Z,20.38
2023-05-09T04:14:15.483Z,21.05
2023-05-09T04:16:42.700Z,20.50
2023-05-09T04:19:10.013Z,21.25
2023-05-09T04:21:38.512Z,18.50
2023-05-09T04:24:06.455Z,20.77
2023-05-09T04:26:39.216Z,18.95
2023-05-09T04:29:09.298Z,20.80
2023-05-09T04:31:36.641Z,19.10
2023-05-09T04:34:04.076Z,19.48
2023-05-09T04:39:06.087Z,18.15
2023-05-09T04:41:34.971Z,18.53
2023-05-09T04:44:02.217Z,17.77
2023-05-09T04:46:29.976Z,17.58
2023-05-09T04:48:57.518Z,18.92
2023-05-09T04:51:24.574Z,17.90
2023-05-09T04:53:51.852Z,16.45
2023-05-09T04:56:21.970Z,17.98
2023-05-09T04:58:49.667Z,16.98
2023-05-09T05:01:16.935Z,17.50
2023-05-09T05:03:46.141Z,17.75
2023-05-09T05:06:13.222Z,17.00
2023-05-09T05:08:42.210Z,17.27
2023-05-09T05:12:21.385Z,16.52
2023-05-09T05:14:48.476Z,16.30
2023-05-09T05:17:19.340Z,17.90
2023-05-09T05:19:47.008Z,18.00
2023-05-09T05:22:14.874Z,17.13
2023-05-09T05:24:44.319Z,17.02
2023-05-09T05:27:11.592Z,17.38
2023-05-09T05:29:38.515Z,17.92
2023-05-09T05:32:06.441Z,17.15
2023-05-09T05:34:34.335Z,17.83
2023-05-09T05:37:02.515Z,17.90
2023-05-09T05:39:29.829Z,18.77
2023-05-09T05:41:57.051Z,16.33
2023-05-09T05:44:24.270Z,17.90
2023-05-09T05:46:51.648Z,17.40
2023-05-09T05:49:18.753Z,16.35
2023-05-09T05:51:46.082Z,17.38
2023-05-09T05:54:13.218Z,17.10
2023-05-09T05:56:40.258Z,17.63
2023-05-09T05:59:10.259Z,16.38
2023-05-09T06:01:38.499Z,16.65
2023-05-09T06:04:05.957Z,15.88
2023-05-09T06:06:33.572Z,15.10
2023-05-09T06:09:01.411Z,15.23
2023-05-09T06:11:28.454Z,15.55
2023-05-09T06:13:55.933Z,14.95
2023-05-09T06:16:23.328Z,14.73
2023-05-09T06:18:52.083Z,15.18
2023-05-09T06:21:21.244Z,15.00
2023-05-09T06:24:05.752Z,14.77
2023-05-09T06:26:37.859Z,14.52
2023-05-09T06:29:06.460Z,14.48
2023-05-09T06:31:39.132Z,14.55
2023-05-09T06:34:06.633Z,14.98
2023-05-09T06:36:51.250Z,14.60
2023-05-09T06:39:18.261Z,14.20
2023-05-09T06:41:45.401Z,14.20
2023-05-09T06:44:19.476Z,14.60
2023-05-09T06:46:46.565Z,13.77
2023-05-09T06:49:14.305Z,13.60
2023-05-09T06:51:41.246Z,13.35
2023-05-09T06:54:08.212Z,13.00
2023-05-09T06:56:35.361Z,13.07
2023-05-09T06:59:02.356Z,12.40
2023-05-09T07:01:29.512Z,12.52
2023-05-09T07:03:56.726Z,12.52
2023-05-09T07:06:23.752Z,11.63
2023-05-09T07:08:50.747Z,10.68
2023-05-09T07:11:17.829Z,11.57
2023-05-09T07:13:44.944Z,11.15
2023-05-09T07:16:11.931Z,11.27
2023-05-09T07:18:39.737Z,11.75
2023-05-09T07:21:07.470Z,10.55
2023-05-09T07:23:34.480Z,10.35
2023-05-09T07:26:01.603Z,11.63
2023-05-09T07:28:28.631Z,9.80
2023-05-09T07:30:56.296Z,10.48
2023-05-09T07:33:23.695Z,10.25
2023-05-09T07:35:50.995Z,8.52
2023-05-09T07:38:17.967Z,8.63
2023-05-09T07:40:44.944Z,9.25
2023-05-09T07:43:12.166Z,8.05
2023-05-09T07:45:39.204Z,7.82
2023-05-09T07:48:06.480Z,8.18
2023-05-09T07:50:33.979Z,7.63
2023-05-09T07:53:01.078Z,7.90
2023-05-09T07:55:28.138Z,9.35
2023-05-09T07:57:55.120Z,7.72
2023-05-09T08:00:24.112Z,7.60
2023-05-09T08:02:52.317Z,7.37
2023-05-09T08:05:19.481Z,7.53
2023-05-09T08:07:46.543Z,6.93
2023-05-09T08:10:13.756Z,6.25
2023-05-09T08:12:40.838Z,6.93
2023-05-09T08:15:08.339Z,7.13
2023-05-09T08:17:35.500Z,7.80
2023-05-09T08:20:02.570Z,7.68
2023-05-09T08:22:29.572Z,8.07
2023-05-09T08:24:56.581Z,8.00
2023-05-09T08:27:23.612Z,8.23
2023-05-09T08:29:50.604Z,7.80
2023-05-09T08:32:20.000Z,7.45
2023-05-09T08:34:47.088Z,6.38
2023-05-09T08:37:15.432Z,7.05
2023-05-09T08:39:43.396Z,6.90
2023-05-09T08:42:11.160Z,7.00
2023-05-09T08:44:38.478Z,7.47
2023-05-09T08:47:05.673Z,6.90
2023-05-09T08:49:33.559Z,6.90
2023-05-09T08:52:00.767Z,6.70
2023-05-09T08:54:29.019Z,6.57
2023-05-09T08:56:58.182Z,6.72
2023-05-09T08:59:26.629Z,7.07
2023-05-09T09:01:55.013Z,8.30
2023-05-09T09:04:23.037Z,6.68
2023-05-09T09:06:51.136Z,5.90
2023-05-09T09:09:20.392Z,6.50
2023-05-09T09:11:48.271Z,7.40
2023-05-09T09:14:27.724Z,7.38
2023-05-09T09:16:56.252Z,6.43
2023-05-09T09:19:29.987Z,6.32
2023-05-09T09:22:00.187Z,6.50
2023-05-09T09:24:27.218Z,5.85
2023-05-09T09:26:54.241Z,5.95
2023-05-09T09:29:23.125Z,5.80
2023-05-09T09:31:55.194Z,5.50
2023-05-09T09:34:24.290Z,6.00
2023-05-09T09:36:51.680Z,5.35
2023-05-09T09:39:19.266Z,5.53
2023-05-09T09:41:46.344Z,5.57
2023-05-09T09:44:15.162Z,5.53
2023-05-09T09:46:47.237Z,5.63
2023-05-09T09:49:15.923Z,5.72
2023-05-09T09:51:43.607Z,5.95
2023-05-09T09:54:12.785Z,5.07
2023-05-09T09:56:51.066Z,5.05
2023-05-09T09:59:20.494Z,5.93
2023-05-09T10:02:12.358Z,5.40
2023-05-09T10:04:42.713Z,4.70
2023-05-09T10:07:14.323Z,4.95
2023-05-09T10:09:43.832Z,4.82
2023-05-09T10:12:14.855Z,5.45
2023-05-09T10:14:44.306Z,5.30
2023-05-09T10:17:15.155Z,5.15
2023-05-09T10:19:47.697Z,4.80
2023-05-09T10:22:17.986Z,4.80
2023-05-09T10:25:06.240Z,4.70
2023-05-09T10:27:36.562Z,4.63
2023-05-09T10:30:22.532Z,4.63
2023-05-09T10:33:09.242Z,4.25
2023-05-09T10:35:55.485Z,3.95
2023-05-09T10:38:24.768Z,4.25
2023-05-09T10:40:56.712Z,4.22
2023-05-09T10:43:25.378Z,4.03
2023-05-09T10:45:53.382Z,3.72
2023-05-09T10:48:20.785Z,3.78
2023-05-09T10:50:48.419Z,4.13
2023-05-09T10:53:18.848Z,4.65
2023-05-09T10:55:56.719Z,3.95
2023-05-09T10:58:33.778Z,3.97
2023-05-09T11:01:03.842Z,3.65
2023-05-09T11:03:54.204Z,3.95
2023-05-09T11:06:46.351Z,4.00
2023-05-09T11:09:35.960Z,3.90
2023-05-09T11:12:06.252Z,3.58
2023-05-09T11:14:46.367Z,3.25
2023-05-09T11:17:15.897Z,3.28
2023-05-09T11:19:46.271Z,4.10
2023-05-09T11:22:28.335Z,3.67
2023-05-09T11:25:26.191Z,2.92
2023-05-09T11:28:00.333Z,3.40
2023-05-09T11:30:39.608Z,3.60
2023-05-09T11:33:07.236Z,3.78
2023-05-09T11:35:37.886Z,3.50
2023-05-09T11:38:06.421Z,3.55
2023-05-09T11:40:35.110Z,3.33
2023-05-09T11:43:02.258Z,3.15
2023-05-09T11:45:31.768Z,3.70
2023-05-09T11:47:59.524Z,3.88
2023-05-09T11:50:26.653Z,3.55
2023-05-09T11:52:54.363Z,3.33
2023-05-09T11:55:22.999Z,3.65
2023-05-09T11:57:54.765Z,3.70
2023-05-09T12:00:24.293Z,3.25
2023-05-09T12:02:52.813Z,3.38
2023-05-09T12:05:21.890Z,3.60
2023-05-09T12:07:49.743Z,3.53
2023-05-09T12:10:21.483Z,3.50
2023-05-09T12:12:49.897Z,3.53
2023-05-09T12:15:18.279Z,3.00
2023-05-09T12:17:48.172Z,3.60
2023-05-09T12:20:16.767Z,3.17
2023-05-09T12:22:44.423Z,3.47
2023-05-09T12:25:12.310Z,3.33
2023-05-09T12:27:40.915Z,3.15
2023-05-09T12:30:10.604Z,3.15
2023-05-09T12:32:40.565Z,3.60
2023-05-09T12:35:10.622Z,3.05
2023-05-09T12:37:37.931Z,3.13
2023-05-09T12:40:08.664Z,3.50
2023-05-09T12:42:36.434Z,3.63
2023-05-09T12:45:04.309Z,3.50
2023-05-09T12:47:32.531Z,3.53
2023-05-09T12:50:01.142Z,4.22
2023-05-09T12:52:41.620Z,3.50
2023-05-09T12:55:14.439Z,3.65
2023-05-09T12:57:43.079Z,3.40
2023-05-09T13:00:12.278Z,3.42
2023-05-09T13:02:42.655Z,3.88
2023-05-09T13:05:16.005Z,3.63
2023-05-09T13:07:47.751Z,4.35
2023-05-09T13:10:27.457Z,3.70
2023-05-09T13:15:23.396Z,4.40
2023-05-09T13:17:51.944Z,3.97
2023-05-09T13:20:19.588Z,4.55
2023-05-09T13:22:47.614Z,4.10
2023-05-09T13:29:12.487Z,4.50
2023-05-09T13:31:39.479Z,4.80
2023-05-09T13:34:06.450Z,4.25
2023-05-09T13:36:34.040Z,3.95
2023-05-09T13:39:01.088Z,3.60
2023-05-09T13:41:30.827Z,4.07
2023-05-09T13:46:25.125Z,4.75
2023-05-09T13:48:52.239Z,5.00
2023-05-09T13:51:19.503Z,4.63
2023-05-09T13:54:34.975Z,4.93
2023-05-09T13:57:05.511Z,4.28
2023-05-09T13:59:41.714Z,4.22
2023-05-09T14:02:11.026Z,4.35
2023-05-09T14:05:09.432Z,4.68
2023-05-09T14:07:37.320Z,5.47
2023-05-09T14:10:40.974Z,5.55
2023-05-09T14:13:08.683Z,5.40
2023-05-09T14:15:40.602Z,5.45
2023-05-09T14:18:07.782Z,5.47
2023-05-09T14:20:37.765Z,4.68
2023-05-09T14:23:04.858Z,5.47
2023-05-09T14:25:31.833Z,4.53
2023-05-09T14:27:59.563Z,5.22
2023-05-09T14:30:26.820Z,4.60
2023-05-09T14:32:53.865Z,5.28
2023-05-09T14:35:21.188Z,4.80
2023-05-09T14:37:48.700Z,5.28
2023-05-09T14:40:16.468Z,4.72
2023-05-09T14:42:49.586Z,5.80
2023-05-09T14:45:16.643Z,4.70
2023-05-09T14:47:43.712Z,5.32
2023-05-09T14:50:15.915Z,4.40
2023-05-09T14:52:44.195Z,4.50
2023-05-09T14:55:11.878Z,5.22
2023-05-09T14:57:38.976Z,4.97
2023-05-09T15:00:19.407Z,4.13
2023-05-09T15:02:48.636Z,5.00
2023-05-09T15:05:35.872Z,4.78
2023-05-09T15:08:03.019Z,16.17
2023-05-09T15:10:30.012Z,4.55
2023-05-09T15:12:57.131Z,4.40
2023-05-09T15:15:24.370Z,4.97
2023-05-09T15:18:21.732Z,5.60
2023-05-09T15:20:48.699Z,5.22
2023-05-09T15:23:15.756Z,4.40
2023-05-09T15:25:43.262Z,5.25
2023-05-09T15:28:11.046Z,5.47
2023-05-09T15:30:41.224Z,5.28
2023-05-09T15:33:08.661Z,5.88
2023-05-09T15:35:35.715Z,4.38
2023-05-09T15:38:02.989Z,4.70
2023-05-09T15:40:30.035Z,5.43
2023-05-09T15:42:57.107Z,4.78
2023-05-09T15:45:34.399Z,5.72
2023-05-09T15:48:01.440Z,5.20
2023-05-09T15:50:29.046Z,4.65
2023-05-09T15:52:56.018Z,4.22
2023-05-09T15:55:23.253Z,4.70
2023-05-09T15:57:51.543Z,5.65
2023-05-09T16:00:19.188Z,5.03
2023-05-09T16:02:46.265Z,4.90
2023-05-09T16:05:13.435Z,5.00
2023-05-09T16:07:44.187Z,5.93
2023-05-09T16:10:11.433Z,5.68
2023-05-09T16:12:38.690Z,4.63
2023-05-09T16:15:06.541Z,5.50
2023-05-09T16:17:33.980Z,5.50
2023-05-09T16:20:02.284Z,5.20
2023-05-09T16:22:29.342Z,5.47
2023-05-09T16:24:56.914Z,5.40
2023-05-09T16:27:23.888Z,5.70
2023-05-09T16:29:50.873Z,6.15
2023-05-09T16:32:17.929Z,6.55
2023-05-09T16:34:44.975Z,7.25
2023-05-09T16:37:11.997Z,7.50
2023-05-09T16:39:38.978Z,7.05
2023-05-09T16:42:06.133Z,6.43
2023-05-09T16:44:33.358Z,7.25
2023-05-09T16:47:00.696Z,6.50
2023-05-09T16:49:28.494Z,5.90
2023-05-09T16:52:01.807Z,5.72
2023-05-09T16:54:28.825Z,5.45
2023-05-09T16:56:56.302Z,5.30
2023-05-09T16:59:24.066Z,5.90
2023-05-09T17:01:52.395Z,5.28
2023-05-09T17:04:20.119Z,5.65
2023-05-09T17:07:14.791Z,6.05
2023-05-09T17:09:43.267Z,5.90
2023-05-09T17:12:16.479Z,5.72
2023-05-09T17:14:50.078Z,5.57
2023-05-09T17:17:17.804Z,5.50
2023-05-09T17:19:44.898Z,5.30
2023-05-09T17:22:11.950Z,5.50
2023-05-09T17:24:38.935Z,5.60
2023-05-09T17:27:06.058Z,4.95
2023-05-09T17:29:33.580Z,5.68
2023-05-09T17:32:01.270Z,4.95
2023-05-09T17:34:29.023Z,4.95
2023-05-09T17:36:56.499Z,4.40
2023-05-09T17:39:23.883Z,3.92
2023-05-09T17:41:51.038Z,2.75
2023-05-09T17:44:48.104Z,2.80
2023-05-09T17:47:15.295Z,2.75
2023-05-09T17:49:42.657Z,2.60
2023-05-09T17:52:09.694Z,2.67
2023-05-09T17:54:37.522Z,2.30
2023-05-09T17:57:04.604Z,2.42
2023-05-09T17:59:31.586Z,4.70
2023-05-09T18:02:25.154Z,4.78
2023-05-09T18:05:55.306Z,3.13
2023-05-09T18:08:22.494Z,2.78
2023-05-09T18:10:49.905Z,4.03
2023-05-09T18:13:17.664Z,3.33
2023-05-09T18:15:44.673Z,3.90
2023-05-09T18:18:14.367Z,4.15
2023-05-09T18:20:42.415Z,3.80
2023-05-09T18:23:09.507Z,3.50
2023-05-09T18:26:02.145Z,4.10
2023-05-09T18:28:29.439Z,4.03
2023-05-09T18:31:00.598Z,4.30
2023-05-09T18:33:28.959Z,3.80
2023-05-09T18:35:56.004Z,4.15
2023-05-09T18:38:23.122Z,4.43
2023-05-09T18:40:55.810Z,4.18
2023-05-09T18:43:23.985Z,3.47
2023-05-09T18:45:52.052Z,3.60
2023-05-09T18:48:19.065Z,3.67
2023-05-09T18:50:47.352Z,3.80
2023-05-09T18:53:14.358Z,3.47
2023-05-09T18:55:41.598Z,2.63
2023-05-09T18:58:08.664Z,2.78
2023-05-09T19:00:39.495Z,2.95
2023-05-09T19:03:06.911Z,2.33
2023-05-09T19:05:34.127Z,2.70
2023-05-09T19:08:01.279Z,2.55
2023-05-09T19:10:28.315Z,3.25
2023-05-09T19:12:57.551Z,3.00
2023-05-09T19:15:24.738Z,3.40
2023-05-09T19:17:51.887Z,3.35
2023-05-09T19:20:19.004Z,3.60
2023-05-09T19:22:51.432Z,3.85
2023-05-09T19:26:10.138Z,3.60
2023-05-09T19:28:37.180Z,3.10
2023-05-09T19:31:04.419Z,3.10
2023-05-09T19:37:57.218Z,3.22
2023-05-09T19:40:24.164Z,3.30
2023-05-09T19:42:51.187Z,3.97
2023-05-09T19:45:18.694Z,4.00
2023-05-09T19:47:45.748Z,3.75
2023-05-09T19:50:12.863Z,4.07
2023-05-09T19:52:40.417Z,3.95
2023-05-09T19:55:07.692Z,3.85
2023-05-09T19:57:34.816Z,4.20
2023-05-09T20:00:02.163Z,3.97
2023-05-09T20:02:53.396Z,3.97
2023-05-09T20:05:20.665Z,4.07
2023-05-09T20:07:47.963Z,4.05
2023-05-09T20:10:15.913Z,4.07
2023-05-09T20:12:44.134Z,4.07
2023-05-09T20:15:12.139Z,3.80
2023-05-09T20:17:39.232Z,3.40
2023-05-09T20:20:06.983Z,3.38
2023-05-09T20:22:34.153Z,3.25
2023-05-09T20:25:01.290Z,3.08
2023-05-09T20:27:28.359Z,3.10
2023-05-09T20:29:55.513Z,3.40
2023-05-09T20:32:22.714Z,3.25
2023-05-09T20:34:49.790Z,3.22
2023-05-09T20:37:17.255Z,3.65
2023-05-09T20:39:45.465Z,3.03
2023-05-09T20:42:20.458Z,3.28
2023-05-09T20:44:48.769Z,2.75
2023-05-09T20:47:16.316Z,3.13
2023-05-09T20:49:43.858Z,2.58
2023-05-09T20:52:11.713Z,2.80
2023-05-09T20:54:39.476Z,2.70
2023-05-09T20:57:08.003Z,2.55
2023-05-09T20:59:35.904Z,2.30
2023-05-09T21:02:03.853Z,2.17
2023-05-09T21:04:31.667Z,2.50
2023-05-09T21:10:55.444Z,2.10
2023-05-09T21:13:22.780Z,2.30
2023-05-09T21:15:53.142Z,2.17
2023-05-09T21:18:20.803Z,2.08
2023-05-09T21:20:47.941Z,2.38
2023-05-09T21:23:15.015Z,1.70
2023-05-09T21:25:42.527Z,2.20
2023-05-09T21:28:09.666Z,2.58
2023-05-09T21:30:36.741Z,2.40
2023-05-09T21:33:04.174Z,2.42
2023-05-09T21:35:31.285Z,2.50
2023-05-09T21:37:58.267Z,2.28
2023-05-09T21:40:25.662Z,2.38
2023-05-09T21:42:52.679Z,2.55
2023-05-09T21:45:19.719Z,2.30
2023-05-09T21:47:46.903Z,2.05
2023-05-09T21:50:14.432Z,2.28
2023-05-09T21:52:41.705Z,2.75
2023-05-09T21:55:09.227Z,2.50
2023-05-09T21:57:36.299Z,2.20
2023-05-09T22:00:05.628Z,2.50
2023-05-09T22:02:43.533Z,2.50
2023-05-09T22:05:11.756Z,3.03
2023-05-09T22:07:39.000Z,3.05
2023-05-09T22:10:07.188Z,2.83
2023-05-09T22:12:34.192Z,3.30
2023-05-09T22:15:01.528Z,3.22
2023-05-09T22:17:28.642Z,3.38
2023-05-09T22:19:55.660Z,3.42
2023-05-09T22:22:23.185Z,2.92
2023-05-09T22:24:50.282Z,3.45
2023-05-09T22:27:17.436Z,3.33
2023-05-09T22:29:45.778Z,3.00
2023-05-09T22:32:12.790Z,3.25
2023-05-09T22:34:39.864Z,3.40
2023-05-09T22:37:07.211Z,2.92
2023-05-09T22:39:34.286Z,3.35
2023-05-09T22:42:04.075Z,3.17
2023-05-09T22:46:59.515Z,3.45
2023-05-09T22:49:26.756Z,3.38
2023-05-09T22:51:53.858Z,3.65
2023-05-09T22:54:22.509Z,3.85
2023-05-09T22:59:17.688Z,3.78
2023-05-09T23:01:44.859Z,4.20
2023-05-09T23:04:12.017Z,3.72
2023-05-09T23:06:39.055Z,3.90
2023-05-09T23:09:06.096Z,3.50
2023-05-09T23:11:33.112Z,4.05
2023-05-09T23:14:00.200Z,3.75
2023-05-09T23:16:27.195Z,3.70
2023-05-09T23:18:54.237Z,2.92
2023-05-09T23:21:21.211Z,3.00
2023-05-09T23:23:48.295Z,3.30
2023-05-09T23:26:15.254Z,3.13
2023-05-09T23:28:42.311Z,3.15
2023-05-09T23:31:10.517Z,2.63
2023-05-09T23:33:37.522Z,2.53
2023-05-09T23:36:04.751Z,2.53
2023-05-09T23:38:31.756Z,2.45
2023-05-09T23:41:00.124Z,2.30
2023-05-09T23:43:27.235Z,2.00
2023-05-09T23:45:54.194Z,2.33
2023-05-09T23:48:21.270Z,2.08
2023-05-09T23:50:49.569Z,1.90
2023-05-09T23:53:16.711Z,2.00
2023-05-09T23:55:43.841Z,2.05
2023-05-09T23:58:10.928Z,2.72
